sensor_id;sensor_type;location;lat;lon;timestamp;P1;durP1;ratioP1;P2;durP2;ratioP2
70026;SDS011;57506;50.092;15.804;2023-01-16T00:00:54;3.50;;;0.87;;
70026;SDS011;57506;50.092;15.804;2023-01-16T00:03:19;4.15;;;0.75;;
70026;SDS011;57506;50.092;15.804;2023-01-16T00:05:45;4.30;;;0.80;;
70026;SDS011;57506;50.092;15.804;2023-01-16T00:08:11;3.85;;;0.60;;
70026;SDS011;57506;50.092;15.804;2023-01-16T00:10:37;4.70;;;1.03;;
70026;SDS011;57506;50.092;15.804;2023-01-16T00:13:02;4.03;;;0.80;;
70026;SDS011;57506;50.092;15.804;2023-01-16T00:15:28;5.17;;;0.90;;
70026;SDS011;57506;50.092;15.804;2023-01-16T00:17:53;5.13;;;0.90;;
70026;SDS011;57506;50.092;15.804;2023-01-16T00:20:19;5.13;;;0.90;;
70026;SDS011;57506;50.092;15.804;2023-01-16T00:22:45;5.15;;;1.10;;
70026;SDS011;57506;50.092;15.804;2023-01-16T00:25:10;5.23;;;0.83;;
70026;SDS011;57506;50.092;15.804;2023-01-16T00:27:36;4.70;;;0.70;;
70026;SDS011;57506;50.092;15.804;2023-01-16T00:30:02;3.95;;;0.98;;
70026;SDS011;57506;50.092;15.804;2023-01-16T00:32:28;4.28;;;0.80;;
70026;SDS011;57506;50.092;15.804;2023-01-16T00:34:54;4.57;;;1.20;;
70026;SDS011;57506;50.092;15.804;2023-01-16T00:37:19;3.70;;;0.70;;
70026;SDS011;57506;50.092;15.804;2023-01-16T00:39:45;6.35;;;1.38;;
70026;SDS011;57506;50.092;15.804;2023-01-16T00:42:10;5.67;;;0.80;;
70026;SDS011;57506;50.092;15.804;2023-01-16T00:44:36;5.70;;;0.90;;
70026;SDS011;57506;50.092;15.804;2023-01-16T00:47:01;4.50;;;0.93;;
70026;SDS011;57506;50.092;15.804;2023-01-16T00:49:27;6.47;;;1.02;;
70026;SDS011;57506;50.092;15.804;2023-01-16T00:51:53;4.03;;;0.67;;
70026;SDS011;57506;50.092;15.804;2023-01-16T00:54:18;4.88;;;0.85;;
70026;SDS011;57506;50.092;15.804;2023-01-16T00:56:44;4.07;;;0.80;;
70026;SDS011;57506;50.092;15.804;2023-01-16T00:59:10;5.80;;;0.80;;
70026;SDS011;57506;50.092;15.804;2023-01-16T01:01:36;4.93;;;0.73;;
70026;SDS011;57506;50.092;15.804;2023-01-16T01:04:02;5.40;;;0.80;;
70026;SDS011;57506;50.092;15.804;2023-01-16T01:06:28;5.35;;;0.90;;
70026;SDS011;57506;50.092;15.804;2023-01-16T01:08:54;6.30;;;0.85;;
70026;SDS011;57506;50.092;15.804;2023-01-16T01:11:20;3.57;;;0.90;;
70026;SDS011;57506;50.092;15.804;2023-01-16T01:13:46;2.80;;;0.70;;
70026;SDS011;57506;50.092;15.804;2023-01-16T01:16:12;4.30;;;0.80;;
70026;SDS011;57506;50.092;15.804;2023-01-16T01:18:38;2.73;;;0.60;;
70026;SDS011;57506;50.092;15.804;2023-01-16T01:21:04;4.80;;;0.68;;
70026;SDS011;57506;50.092;15.804;2023-01-16T01:23:30;5.40;;;0.90;;
70026;SDS011;57506;50.092;15.804;2023-01-16T01:25:56;5.25;;;0.93;;
70026;SDS011;57506;50.092;15.804;2023-01-16T01:28:22;6.00;;;0.90;;
70026;SDS011;57506;50.092;15.804;2023-01-16T01:30:47;3.10;;;0.80;;
70026;SDS011;57506;50.092;15.804;2023-01-16T01:33:13;4.05;;;0.80;;
70026;SDS011;57506;50.092;15.804;2023-01-16T01:35:38;4.30;;;0.80;;
70026;SDS011;57506;50.092;15.804;2023-01-16T01:38:04;7.27;;;0.90;;
70026;SDS011;57506;50.092;15.804;2023-01-16T01:40:30;4.53;;;0.73;;
70026;SDS011;57506;50.092;15.804;2023-01-16T01:42:57;4.60;;;1.10;;
70026;SDS011;57506;50.092;15.804;2023-01-16T01:45:23;4.10;;;0.80;;
70026;SDS011;57506;50.092;15.804;2023-01-16T01:53:43;4.77;;;0.87;;
70026;SDS011;57506;50.092;15.804;2023-01-16T01:56:21;4.43;;;0.63;;
70026;SDS011;57506;50.092;15.804;2023-01-16T01:58:53;3.60;;;0.70;;
70026;SDS011;57506;50.092;15.804;2023-01-16T02:01:21;4.57;;;0.80;;
70026;SDS011;57506;50.092;15.804;2023-01-16T02:03:49;5.30;;;0.77;;
70026;SDS011;57506;50.092;15.804;2023-01-16T02:06:22;6.87;;;1.00;;
70026;SDS011;57506;50.092;15.804;2023-01-16T02:08:55;5.00;;;0.98;;
70026;SDS011;57506;50.092;15.804;2023-01-16T02:11:30;4.93;;;0.70;;
70026;SDS011;57506;50.092;15.804;2023-01-16T02:14:06;3.93;;;0.87;;
70026;SDS011;57506;50.092;15.804;2023-01-16T02:16:34;4.15;;;0.65;;
70026;SDS011;57506;50.092;15.804;2023-01-16T02:41:50;4.67;;;0.60;;
70026;SDS011;57506;50.092;15.804;2023-01-16T02:52:44;3.40;;;0.70;;
70026;SDS011;57506;50.092;15.804;2023-01-16T02:55:26;4.63;;;0.60;;
70026;SDS011;57506;50.092;15.804;2023-01-16T02:57:59;2.35;;;0.38;;
70026;SDS011;57506;50.092;15.804;2023-01-16T03:00:26;2.72;;;0.50;;
70026;SDS011;57506;50.092;15.804;2023-01-16T03:02:53;2.92;;;0.40;;
70026;SDS011;57506;50.092;15.804;2023-01-16T03:05:19;4.37;;;0.60;;
70026;SDS011;57506;50.092;15.804;2023-01-16T03:13:32;4.03;;;0.70;;
70026;SDS011;57506;50.092;15.804;2023-01-16T03:18:50;3.88;;;0.50;;
70026;SDS011;57506;50.092;15.804;2023-01-16T03:23:56;2.88;;;0.68;;
70026;SDS011;57506;50.092;15.804;2023-01-16T03:35:17;6.65;;;1.05;;
70026;SDS011;57506;50.092;15.804;2023-01-16T03:37:50;4.72;;;0.85;;
70026;SDS011;57506;50.092;15.804;2023-01-16T03:40:23;4.35;;;0.60;;
70026;SDS011;57506;50.092;15.804;2023-01-16T03:42:55;4.07;;;0.90;;
70026;SDS011;57506;50.092;15.804;2023-01-16T03:45:32;2.60;;;0.60;;
70026;SDS011;57506;50.092;15.804;2023-01-16T03:48:11;3.70;;;0.70;;
70026;SDS011;57506;50.092;15.804;2023-01-16T03:50:44;5.65;;;0.70;;
70026;SDS011;57506;50.092;15.804;2023-01-16T03:53:17;3.05;;;0.50;;
70026;SDS011;57506;50.092;15.804;2023-01-16T03:55:56;5.43;;;0.50;;
70026;SDS011;57506;50.092;15.804;2023-01-16T03:58:33;4.75;;;0.80;;
70026;SDS011;57506;50.092;15.804;2023-01-16T04:03:34;4.03;;;0.67;;
70026;SDS011;57506;50.092;15.804;2023-01-16T04:09:24;5.13;;;0.88;;
70026;SDS011;57506;50.092;15.804;2023-01-16T04:11:59;3.45;;;0.85;;
70026;SDS011;57506;50.092;15.804;2023-01-16T04:14:26;5.33;;;1.03;;
70026;SDS011;57506;50.092;15.804;2023-01-16T04:16:54;6.05;;;1.52;;
70026;SDS011;57506;50.092;15.804;2023-01-16T04:19:20;10.63;;;2.15;;
70026;SDS011;57506;50.092;15.804;2023-01-16T04:21:47;6.15;;;1.38;;
70026;SDS011;57506;50.092;15.804;2023-01-16T04:24:13;3.70;;;0.93;;
70026;SDS011;57506;50.092;15.804;2023-01-16T04:26:40;4.53;;;1.00;;
70026;SDS011;57506;50.092;15.804;2023-01-16T04:29:06;3.47;;;0.80;;
70026;SDS011;57506;50.092;15.804;2023-01-16T04:31:31;5.63;;;1.03;;
70026;SDS011;57506;50.092;15.804;2023-01-16T04:33:57;4.10;;;0.90;;
70026;SDS011;57506;50.092;15.804;2023-01-16T04:36:22;3.77;;;1.00;;
70026;SDS011;57506;50.092;15.804;2023-01-16T04:38:48;3.67;;;0.73;;
70026;SDS011;57506;50.092;15.804;2023-01-16T04:41:13;3.78;;;1.00;;
70026;SDS011;57506;50.092;15.804;2023-01-16T04:43:59;4.45;;;1.00;;
70026;SDS011;57506;50.092;15.804;2023-01-16T04:46:24;5.50;;;1.30;;
70026;SDS011;57506;50.092;15.804;2023-01-16T04:48:50;3.63;;;0.73;;
70026;SDS011;57506;50.092;15.804;2023-01-16T04:51:15;5.97;;;1.00;;
70026;SDS011;57506;50.092;15.804;2023-01-16T04:53:41;4.07;;;0.90;;
70026;SDS011;57506;50.092;15.804;2023-01-16T04:56:06;3.10;;;0.80;;
70026;SDS011;57506;50.092;15.804;2023-01-16T04:58:32;4.67;;;1.17;;
70026;SDS011;57506;50.092;15.804;2023-01-16T05:00:57;5.47;;;1.50;;
70026;SDS011;57506;50.092;15.804;2023-01-16T05:03:22;4.20;;;0.57;;
70026;SDS011;57506;50.092;15.804;2023-01-16T05:05:48;3.87;;;0.63;;
70026;SDS011;57506;50.092;15.804;2023-01-16T05:08:13;2.33;;;0.40;;
70026;SDS011;57506;50.092;15.804;2023-01-16T05:10:42;3.83;;;0.52;;
70026;SDS011;57506;50.092;15.804;2023-01-16T05:13:07;6.40;;;0.50;;
70026;SDS011;57506;50.092;15.804;2023-01-16T05:15:33;3.53;;;0.52;;
70026;SDS011;57506;50.092;15.804;2023-01-16T05:17:58;5.17;;;0.80;;
70026;SDS011;57506;50.092;15.804;2023-01-16T05:20:24;12.70;;;4.10;;
70026;SDS011;57506;50.092;15.804;2023-01-16T05:22:49;17.17;;;5.40;;
70026;SDS011;57506;50.092;15.804;2023-01-16T05:25:15;9.77;;;3.00;;
70026;SDS011;57506;50.092;15.804;2023-01-16T05:27:40;4.13;;;1.10;;
70026;SDS011;57506;50.092;15.804;2023-01-16T05:30:06;4.73;;;1.00;;
70026;SDS011;57506;50.092;15.804;2023-01-16T05:32:32;5.18;;;1.23;;
70026;SDS011;57506;50.092;15.804;2023-01-16T05:34:58;4.43;;;0.90;;
70026;SDS011;57506;50.092;15.804;2023-01-16T05:37:27;7.72;;;1.88;;
70026;SDS011;57506;50.092;15.804;2023-01-16T05:39:52;5.87;;;1.60;;
70026;SDS011;57506;50.092;15.804;2023-01-16T05:42:21;16.05;;;6.43;;
70026;SDS011;57506;50.092;15.804;2023-01-16T05:44:49;6.80;;;2.22;;
70026;SDS011;57506;50.092;15.804;2023-01-16T05:47:16;4.10;;;1.10;;
70026;SDS011;57506;50.092;15.804;2023-01-16T05:49:45;8.10;;;1.30;;
70026;SDS011;57506;50.092;15.804;2023-01-16T05:52:11;5.93;;;1.30;;
70026;SDS011;57506;50.092;15.804;2023-01-16T05:54:38;4.30;;;1.30;;
70026;SDS011;57506;50.092;15.804;2023-01-16T05:57:03;4.70;;;1.50;;
70026;SDS011;57506;50.092;15.804;2023-01-16T05:59:29;4.90;;;1.47;;
70026;SDS011;57506;50.092;15.804;2023-01-16T06:01:55;7.03;;;1.65;;
70026;SDS011;57506;50.092;15.804;2023-01-16T06:04:22;4.90;;;1.75;;
70026;SDS011;57506;50.092;15.804;2023-01-16T06:06:48;4.97;;;1.47;;
70026;SDS011;57506;50.092;15.804;2023-01-16T06:09:13;7.40;;;3.28;;
70026;SDS011;57506;50.092;15.804;2023-01-16T06:11:39;12.13;;;7.10;;
70026;SDS011;57506;50.092;15.804;2023-01-16T06:14:05;9.73;;;6.17;;
70026;SDS011;57506;50.092;15.804;2023-01-16T06:16:31;7.90;;;4.03;;
70026;SDS011;57506;50.092;15.804;2023-01-16T06:18:57;6.15;;;2.40;;
70026;SDS011;57506;50.092;15.804;2023-01-16T06:21:23;7.13;;;2.65;;
70026;SDS011;57506;50.092;15.804;2023-01-16T06:23:49;5.32;;;2.03;;
70026;SDS011;57506;50.092;15.804;2023-01-16T06:26:14;7.90;;;2.63;;
70026;SDS011;57506;50.092;15.804;2023-01-16T06:28:40;5.80;;;2.23;;
70026;SDS011;57506;50.092;15.804;2023-01-16T06:31:06;8.25;;;2.30;;
70026;SDS011;57506;50.092;15.804;2023-01-16T06:33:32;11.02;;;3.13;;
70026;SDS011;57506;50.092;15.804;2023-01-16T06:35:58;8.60;;;3.60;;
70026;SDS011;57506;50.092;15.804;2023-01-16T06:38:23;9.40;;;3.10;;
70026;SDS011;57506;50.092;15.804;2023-01-16T06:40:49;8.00;;;3.40;;
70026;SDS011;57506;50.092;15.804;2023-01-16T06:43:14;7.47;;;2.80;;
70026;SDS011;57506;50.092;15.804;2023-01-16T06:45:41;6.03;;;2.03;;
70026;SDS011;57506;50.092;15.804;2023-01-16T06:48:10;6.28;;;2.15;;
70026;SDS011;57506;50.092;15.804;2023-01-16T06:50:35;5.63;;;1.80;;
70026;SDS011;57506;50.092;15.804;2023-01-16T06:53:01;5.00;;;1.70;;
70026;SDS011;57506;50.092;15.804;2023-01-16T06:55:27;4.67;;;1.70;;
70026;SDS011;57506;50.092;15.804;2023-01-16T06:57:53;6.70;;;2.30;;
70026;SDS011;57506;50.092;15.804;2023-01-16T07:00:18;5.27;;;2.20;;
70026;SDS011;57506;50.092;15.804;2023-01-16T07:02:48;5.40;;;1.70;;
70026;SDS011;57506;50.092;15.804;2023-01-16T07:05:16;5.07;;;1.80;;
70026;SDS011;57506;50.092;15.804;2023-01-16T07:07:41;6.33;;;1.70;;
70026;SDS011;57506;50.092;15.804;2023-01-16T07:10:07;4.73;;;1.90;;
70026;SDS011;57506;50.092;15.804;2023-01-16T07:12:33;5.90;;;2.60;;
70026;SDS011;57506;50.092;15.804;2023-01-16T07:14:59;8.77;;;2.37;;
70026;SDS011;57506;50.092;15.804;2023-01-16T07:17:43;6.85;;;2.50;;
70026;SDS011;57506;50.092;15.804;2023-01-16T07:20:27;8.35;;;2.15;;
70026;SDS011;57506;50.092;15.804;2023-01-16T07:23:14;8.27;;;2.40;;
70026;SDS011;57506;50.092;15.804;2023-01-16T07:25:43;9.98;;;2.80;;
70026;SDS011;57506;50.092;15.804;2023-01-16T07:28:09;7.23;;;2.43;;
70026;SDS011;57506;50.092;15.804;2023-01-16T07:30:35;5.40;;;2.25;;
70026;SDS011;57506;50.092;15.804;2023-01-16T07:33:00;7.10;;;2.70;;
70026;SDS011;57506;50.092;15.804;2023-01-16T07:35:26;6.05;;;2.35;;
70026;SDS011;57506;50.092;15.804;2023-01-16T07:37:51;8.83;;;2.60;;
70026;SDS011;57506;50.092;15.804;2023-01-16T07:40:21;7.22;;;2.65;;
70026;SDS011;57506;50.092;15.804;2023-01-16T07:42:49;8.27;;;3.63;;
70026;SDS011;57506;50.092;15.804;2023-01-16T07:45:16;10.03;;;3.27;;
70026;SDS011;57506;50.092;15.804;2023-01-16T07:47:42;7.65;;;2.95;;
70026;SDS011;57506;50.092;15.804;2023-01-16T07:50:08;6.75;;;2.72;;
70026;SDS011;57506;50.092;15.804;2023-01-16T07:52:34;10.30;;;2.97;;
70026;SDS011;57506;50.092;15.804;2023-01-16T07:55:00;8.20;;;2.60;;
70026;SDS011;57506;50.092;15.804;2023-01-16T07:57:25;9.23;;;3.43;;
70026;SDS011;57506;50.092;15.804;2023-01-16T07:59:51;7.50;;;2.60;;
70026;SDS011;57506;50.092;15.804;2023-01-16T08:02:17;7.53;;;3.10;;
70026;SDS011;57506;50.092;15.804;2023-01-16T08:04:42;11.87;;;3.33;;
70026;SDS011;57506;50.092;15.804;2023-01-16T08:07:08;5.22;;;1.80;;
70026;SDS011;57506;50.092;15.804;2023-01-16T08:09:33;7.63;;;1.87;;
70026;SDS011;57506;50.092;15.804;2023-01-16T08:11:59;5.83;;;1.30;;
70026;SDS011;57506;50.092;15.804;2023-01-16T08:14:24;6.20;;;1.65;;
70026;SDS011;57506;50.092;15.804;2023-01-16T08:16:51;5.17;;;1.43;;
70026;SDS011;57506;50.092;15.804;2023-01-16T08:19:17;5.18;;;1.50;;
70026;SDS011;57506;50.092;15.804;2023-01-16T08:21:42;4.97;;;1.43;;
70026;SDS011;57506;50.092;15.804;2023-01-16T08:24:08;4.95;;;1.50;;
70026;SDS011;57506;50.092;15.804;2023-01-16T08:26:34;5.97;;;1.65;;
70026;SDS011;57506;50.092;15.804;2023-01-16T08:29:00;9.43;;;1.60;;
70026;SDS011;57506;50.092;15.804;2023-01-16T08:31:27;8.48;;;2.45;;
70026;SDS011;57506;50.092;15.804;2023-01-16T08:33:53;6.20;;;1.90;;
70026;SDS011;57506;50.092;15.804;2023-01-16T08:36:18;5.70;;;1.60;;
70026;SDS011;57506;50.092;15.804;2023-01-16T08:38:46;5.32;;;1.67;;
70026;SDS011;57506;50.092;15.804;2023-01-16T08:41:15;6.93;;;1.98;;
70026;SDS011;57506;50.092;15.804;2023-01-16T08:43:59;6.38;;;2.35;;
70026;SDS011;57506;50.092;15.804;2023-01-16T08:46:43;8.77;;;3.03;;
70026;SDS011;57506;50.092;15.804;2023-01-16T08:49:37;9.95;;;2.45;;
70026;SDS011;57506;50.092;15.804;2023-01-16T08:52:21;7.97;;;2.05;;
70026;SDS011;57506;50.092;15.804;2023-01-16T08:54:47;5.70;;;1.60;;
70026;SDS011;57506;50.092;15.804;2023-01-16T08:57:13;7.37;;;1.83;;
70026;SDS011;57506;50.092;15.804;2023-01-16T08:59:39;5.82;;;2.47;;
70026;SDS011;57506;50.092;15.804;2023-01-16T09:02:04;6.97;;;1.83;;
70026;SDS011;57506;50.092;15.804;2023-01-16T09:04:34;6.47;;;1.67;;
70026;SDS011;57506;50.092;15.804;2023-01-16T09:07:00;7.67;;;1.83;;
70026;SDS011;57506;50.092;15.804;2023-01-16T09:09:26;5.50;;;1.38;;
70026;SDS011;57506;50.092;15.804;2023-01-16T09:11:55;8.03;;;1.77;;
70026;SDS011;57506;50.092;15.804;2023-01-16T09:14:39;5.82;;;1.40;;
70026;SDS011;57506;50.092;15.804;2023-01-16T09:17:05;6.50;;;2.10;;
70026;SDS011;57506;50.092;15.804;2023-01-16T09:19:32;8.60;;;1.55;;
70026;SDS011;57506;50.092;15.804;2023-01-16T09:21:57;4.90;;;1.40;;
70026;SDS011;57506;50.092;15.804;2023-01-16T09:24:23;4.83;;;1.73;;
70026;SDS011;57506;50.092;15.804;2023-01-16T09:26:50;7.15;;;1.30;;
70026;SDS011;57506;50.092;15.804;2023-01-16T09:29:15;5.67;;;1.57;;
70026;SDS011;57506;50.092;15.804;2023-01-16T09:31:40;5.77;;;1.40;;
70026;SDS011;57506;50.092;15.804;2023-01-16T09:34:06;6.25;;;1.60;;
70026;SDS011;57506;50.092;15.804;2023-01-16T09:36:31;4.73;;;1.53;;
70026;SDS011;57506;50.092;15.804;2023-01-16T09:38:57;5.40;;;1.73;;
70026;SDS011;57506;50.092;15.804;2023-01-16T09:41:23;4.53;;;1.48;;
70026;SDS011;57506;50.092;15.804;2023-01-16T09:44:09;5.63;;;1.33;;
70026;SDS011;57506;50.092;15.804;2023-01-16T09:46:40;7.63;;;1.43;;
70026;SDS011;57506;50.092;15.804;2023-01-16T09:49:28;6.07;;;1.70;;
70026;SDS011;57506;50.092;15.804;2023-01-16T09:52:09;4.88;;;1.67;;
70026;SDS011;57506;50.092;15.804;2023-01-16T09:55:01;6.30;;;1.60;;
70026;SDS011;57506;50.092;15.804;2023-01-16T09:57:50;5.55;;;1.45;;
70026;SDS011;57506;50.092;15.804;2023-01-16T10:00:36;5.07;;;1.63;;
70026;SDS011;57506;50.092;15.804;2023-01-16T10:03:03;4.65;;;1.17;;
70026;SDS011;57506;50.092;15.804;2023-01-16T10:05:36;4.60;;;1.17;;
70026;SDS011;57506;50.092;15.804;2023-01-16T10:10:53;4.30;;;1.20;;
70026;SDS011;57506;50.092;15.804;2023-01-16T10:13:27;5.55;;;1.27;;
70026;SDS011;57506;50.092;15.804;2023-01-16T10:16:15;4.20;;;1.20;;
70026;SDS011;57506;50.092;15.804;2023-01-16T10:19:22;4.93;;;1.50;;
70026;SDS011;57506;50.092;15.804;2023-01-16T10:22:13;4.55;;;1.02;;
70026;SDS011;57506;50.092;15.804;2023-01-16T10:30:28;6.38;;;1.00;;
70026;SDS011;57506;50.092;15.804;2023-01-16T10:33:41;3.60;;;1.00;;
70026;SDS011;57506;50.092;15.804;2023-01-16T10:35:55;3.72;;;0.90;;
70026;SDS011;57506;50.092;15.804;2023-01-16T10:41:30;4.43;;;1.10;;
70026;SDS011;57506;50.092;15.804;2023-01-16T10:44:34;4.70;;;1.00;;
70026;SDS011;57506;50.092;15.804;2023-01-16T10:47:32;4.60;;;0.90;;
70026;SDS011;57506;50.092;15.804;2023-01-16T10:50:18;5.63;;;1.05;;
70026;SDS011;57506;50.092;15.804;2023-01-16T10:52:46;5.63;;;1.15;;
70026;SDS011;57506;50.092;15.804;2023-01-16T10:55:13;5.00;;;0.88;;
70026;SDS011;57506;50.092;15.804;2023-01-16T10:57:47;2.95;;;0.70;;
70026;SDS011;57506;50.092;15.804;2023-01-16T11:00:21;4.43;;;0.83;;
70026;SDS011;57506;50.092;15.804;2023-01-16T11:02:56;3.95;;;0.80;;
70026;SDS011;57506;50.092;15.804;2023-01-16T11:05:29;3.85;;;0.80;;
70026;SDS011;57506;50.092;15.804;2023-01-16T11:08:09;3.58;;;0.75;;
70026;SDS011;57506;50.092;15.804;2023-01-16T11:10:38;4.13;;;0.80;;
70026;SDS011;57506;50.092;15.804;2023-01-16T11:13:04;4.40;;;0.87;;
70026;SDS011;57506;50.092;15.804;2023-01-16T11:16:00;6.95;;;1.38;;
70026;SDS011;57506;50.092;15.804;2023-01-16T11:18:58;6.78;;;1.60;;
70026;SDS011;57506;50.092;15.804;2023-01-16T11:21:39;4.90;;;1.40;;
70026;SDS011;57506;50.092;15.804;2023-01-16T11:24:19;6.03;;;1.55;;
70026;SDS011;57506;50.092;15.804;2023-01-16T11:26:54;4.70;;;1.60;;
70026;SDS011;57506;50.092;15.804;2023-01-16T11:29:23;4.70;;;0.98;;
70026;SDS011;57506;50.092;15.804;2023-01-16T11:31:54;7.57;;;2.03;;
70026;SDS011;57506;50.092;15.804;2023-01-16T11:34:26;5.50;;;1.95;;
70026;SDS011;57506;50.092;15.804;2023-01-16T11:36:54;6.18;;;1.70;;
70026;SDS011;57506;50.092;15.804;2023-01-16T11:39:23;5.30;;;1.67;;
70026;SDS011;57506;50.092;15.804;2023-01-16T11:41:52;4.22;;;1.50;;
70026;SDS011;57506;50.092;15.804;2023-01-16T11:47:26;6.07;;;1.77;;
70026;SDS011;57506;50.092;15.804;2023-01-16T11:49:52;7.35;;;1.80;;
70026;SDS011;57506;50.092;15.804;2023-01-16T11:52:22;4.33;;;1.30;;
70026;SDS011;57506;50.092;15.804;2023-01-16T11:54:56;5.35;;;1.77;;
70026;SDS011;57506;50.092;15.804;2023-01-16T12:08:18;6.53;;;1.55;;
70026;SDS011;57506;50.092;15.804;2023-01-16T12:11:07;5.60;;;1.38;;
70026;SDS011;57506;50.092;15.804;2023-01-16T12:19:49;6.00;;;1.40;;
70026;SDS011;57506;50.092;15.804;2023-01-16T12:22:45;4.32;;;0.80;;
70026;SDS011;57506;50.092;15.804;2023-01-16T12:28:32;3.10;;;0.70;;
70026;SDS011;57506;50.092;15.804;2023-01-16T12:45:24;3.22;;;0.80;;
70026;SDS011;57506;50.092;15.804;2023-01-16T12:53:22;3.90;;;0.80;;
70026;SDS011;57506;50.092;15.804;2023-01-16T12:58:59;4.07;;;0.50;;
70026;SDS011;57506;50.092;15.804;2023-01-16T13:01:41;4.30;;;1.00;;
70026;SDS011;57506;50.092;15.804;2023-01-16T13:06:50;3.13;;;0.60;;
70026;SDS011;57506;50.092;15.804;2023-01-16T13:11:55;3.30;;;0.60;;
70026;SDS011;57506;50.092;15.804;2023-01-16T13:14:46;3.03;;;0.70;;
70026;SDS011;57506;50.092;15.804;2023-01-16T13:17:19;3.83;;;0.60;;
70026;SDS011;57506;50.092;15.804;2023-01-16T13:19:51;3.33;;;0.75;;
70026;SDS011;57506;50.092;15.804;2023-01-16T13:22:21;4.00;;;0.97;;
70026;SDS011;57506;50.092;15.804;2023-01-16T13:24:56;3.10;;;0.80;;
70026;SDS011;57506;50.092;15.804;2023-01-16T13:27:36;2.83;;;0.65;;
70026;SDS011;57506;50.092;15.804;2023-01-16T13:30:12;4.25;;;0.68;;
70026;SDS011;57506;50.092;15.804;2023-01-16T13:47:16;5.32;;;1.30;;
70026;SDS011;57506;50.092;15.804;2023-01-16T13:49:53;5.47;;;1.60;;
70026;SDS011;57506;50.092;15.804;2023-01-16T13:52:25;3.55;;;1.42;;
70026;SDS011;57506;50.092;15.804;2023-01-16T13:54:56;5.30;;;1.88;;
70026;SDS011;57506;50.092;15.804;2023-01-16T13:57:24;5.65;;;2.10;;
70026;SDS011;57506;50.092;15.804;2023-01-16T14:11:03;5.85;;;1.70;;
70026;SDS011;57506;50.092;15.804;2023-01-16T14:13:41;6.35;;;1.48;;
70026;SDS011;57506;50.092;15.804;2023-01-16T14:21:23;4.83;;;1.40;;
70026;SDS011;57506;50.092;15.804;2023-01-16T14:23:56;4.00;;;1.23;;
70026;SDS011;57506;50.092;15.804;2023-01-16T14:34:34;7.35;;;2.00;;
70026;SDS011;57506;50.092;15.804;2023-01-16T14:37:15;5.47;;;2.33;;
70026;SDS011;57506;50.092;15.804;2023-01-16T14:39:51;7.00;;;2.08;;
70026;SDS011;57506;50.092;15.804;2023-01-16T14:42:26;6.60;;;2.80;;
70026;SDS011;57506;50.092;15.804;2023-01-16T14:53:52;8.27;;;2.13;;
70026;SDS011;57506;50.092;15.804;2023-01-16T14:57:02;4.38;;;1.83;;
70026;SDS011;57506;50.092;15.804;2023-01-16T14:59:32;5.17;;;1.80;;
70026;SDS011;57506;50.092;15.804;2023-01-16T15:02:20;5.47;;;1.30;;
70026;SDS011;57506;50.092;15.804;2023-01-16T15:09:59;4.43;;;1.40;;
70026;SDS011;57506;50.092;15.804;2023-01-16T15:12:39;4.25;;;1.10;;
70026;SDS011;57506;50.092;15.804;2023-01-16T15:15:18;3.88;;;0.90;;
70026;SDS011;57506;50.092;15.804;2023-01-16T15:17:46;4.93;;;1.37;;
70026;SDS011;57506;50.092;15.804;2023-01-16T15:20:34;4.40;;;1.60;;
70026;SDS011;57506;50.092;15.804;2023-01-16T15:31:25;4.13;;;1.23;;
70026;SDS011;57506;50.092;15.804;2023-01-16T15:33:58;4.13;;;1.38;;
70026;SDS011;57506;50.092;15.804;2023-01-16T15:36:46;3.63;;;1.13;;
70026;SDS011;57506;50.092;15.804;2023-01-16T15:41:52;4.47;;;1.63;;
70026;SDS011;57506;50.092;15.804;2023-01-16T15:44:37;3.90;;;1.50;;
70026;SDS011;57506;50.092;15.804;2023-01-16T15:52:52;7.28;;;2.60;;
70026;SDS011;57506;50.092;15.804;2023-01-16T15:55:19;6.70;;;2.77;;
70026;SDS011;57506;50.092;15.804;2023-01-16T15:57:48;5.50;;;2.17;;
70026;SDS011;57506;50.092;15.804;2023-01-16T16:02:47;5.35;;;1.88;;
70026;SDS011;57506;50.092;15.804;2023-01-16T16:05:13;5.13;;;2.00;;
70026;SDS011;57506;50.092;15.804;2023-01-16T16:07:41;7.03;;;2.35;;
70026;SDS011;57506;50.092;15.804;2023-01-16T16:10:11;5.45;;;2.03;;
70026;SDS011;57506;50.092;15.804;2023-01-16T16:12:57;5.78;;;1.90;;
70026;SDS011;57506;50.092;15.804;2023-01-16T16:15:23;5.60;;;2.10;;
70026;SDS011;57506;50.092;15.804;2023-01-16T16:18:17;6.53;;;2.00;;
70026;SDS011;57506;50.092;15.804;2023-01-16T16:20:48;5.38;;;2.05;;
70026;SDS011;57506;50.092;15.804;2023-01-16T16:23:19;4.82;;;2.00;;
70026;SDS011;57506;50.092;15.804;2023-01-16T16:25:53;5.40;;;1.97;;
70026;SDS011;57506;50.092;15.804;2023-01-16T16:28:21;5.25;;;1.95;;
70026;SDS011;57506;50.092;15.804;2023-01-16T16:33:22;6.50;;;2.70;;
70026;SDS011;57506;50.092;15.804;2023-01-16T16:35:50;5.57;;;2.72;;
70026;SDS011;57506;50.092;15.804;2023-01-16T16:38:21;5.30;;;2.17;;
70026;SDS011;57506;50.092;15.804;2023-01-16T16:53:47;10.20;;;3.78;;
70026;SDS011;57506;50.092;15.804;2023-01-16T16:56:20;9.23;;;3.97;;
70026;SDS011;57506;50.092;15.804;2023-01-16T16:58:50;10.25;;;3.00;;
70026;SDS011;57506;50.092;15.804;2023-01-16T17:01:17;6.97;;;2.03;;
70026;SDS011;57506;50.092;15.804;2023-01-16T17:03:46;6.87;;;2.77;;
70026;SDS011;57506;50.092;15.804;2023-01-16T17:06:15;6.28;;;2.08;;
70026;SDS011;57506;50.092;15.804;2023-01-16T17:08:45;4.35;;;1.80;;
70026;SDS011;57506;50.092;15.804;2023-01-16T17:11:10;5.90;;;2.07;;
70026;SDS011;57506;50.092;15.804;2023-01-16T17:13:37;7.47;;;2.45;;
70026;SDS011;57506;50.092;15.804;2023-01-16T17:16:02;8.23;;;3.43;;
70026;SDS011;57506;50.092;15.804;2023-01-16T17:18:31;8.30;;;3.30;;
70026;SDS011;57506;50.092;15.804;2023-01-16T17:20:58;9.88;;;2.95;;
70026;SDS011;57506;50.092;15.804;2023-01-16T17:23:23;6.57;;;2.63;;
70026;SDS011;57506;50.092;15.804;2023-01-16T17:25:51;6.57;;;2.73;;
70026;SDS011;57506;50.092;15.804;2023-01-16T17:28:18;9.05;;;2.90;;
70026;SDS011;57506;50.092;15.804;2023-01-16T17:30:44;7.38;;;2.75;;
70026;SDS011;57506;50.092;15.804;2023-01-16T17:33:14;6.00;;;2.30;;
70026;SDS011;57506;50.092;15.804;2023-01-16T17:35:42;7.22;;;2.63;;
70026;SDS011;57506;50.092;15.804;2023-01-16T17:38:11;5.20;;;2.50;;
70026;SDS011;57506;50.092;15.804;2023-01-16T17:40:37;7.80;;;3.20;;
70026;SDS011;57506;50.092;15.804;2023-01-16T17:43:03;5.68;;;2.50;;
70026;SDS011;57506;50.092;15.804;2023-01-16T17:45:47;6.28;;;2.60;;
70026;SDS011;57506;50.092;15.804;2023-01-16T17:48:27;6.70;;;3.00;;
70026;SDS011;57506;50.092;15.804;2023-01-16T17:50:55;8.25;;;3.20;;
70026;SDS011;57506;50.092;15.804;2023-01-16T17:53:24;8.48;;;3.42;;
70026;SDS011;57506;50.092;15.804;2023-01-16T17:55:52;8.98;;;3.50;;
70026;SDS011;57506;50.092;15.804;2023-01-16T17:58:22;7.53;;;3.47;;
70026;SDS011;57506;50.092;15.804;2023-01-16T18:01:03;9.40;;;4.00;;
70026;SDS011;57506;50.092;15.804;2023-01-16T18:03:30;8.55;;;3.60;;
70026;SDS011;57506;50.092;15.804;2023-01-16T18:06:07;10.88;;;4.20;;
70026;SDS011;57506;50.092;15.804;2023-01-16T18:08:33;10.57;;;4.40;;
70026;SDS011;57506;50.092;15.804;2023-01-16T18:11:00;9.48;;;4.20;;
70026;SDS011;57506;50.092;15.804;2023-01-16T18:13:48;10.50;;;4.60;;
70026;SDS011;57506;50.092;15.804;2023-01-16T18:16:33;9.90;;;4.75;;
70026;SDS011;57506;50.092;15.804;2023-01-16T18:19:18;12.15;;;5.18;;
70026;SDS011;57506;50.092;15.804;2023-01-16T18:21:44;10.63;;;5.13;;
70026;SDS011;57506;50.092;15.804;2023-01-16T18:24:25;10.10;;;5.20;;
70026;SDS011;57506;50.092;15.804;2023-01-16T18:27:02;10.43;;;4.85;;